Aérodrome :
LOGIN :

S'inscrire | Disclaimer

   EN    FR    IT 

 










Légende :    VFR   VFR Marginal   IFR   IFR Intensif   IFR Très Intensif
Visi : 
Plafond : 
>= 8 km
>= 3000ft
5 à 8 km
1000 à 3000 ft
1500m à 5 km
500 à 1000 ft
800 à 1500m
200 à 500 ft
< 800m
< 200 ft
Symboles :   Orages  Brouillard  Fortes neiges  Fortes précipitations  Vent > 20 kt
SIGMETs :   Divers  Orages  Givrage  Turbulence  Onde Orograph.  Cendres Volcan.






- Altitude de l'aérodrome : 401 ft
- Code IATA : LEQ


EGHC - Land's End

DERNIER METAR :
  • 141320Z 01034G45KT 9999 SHRA FEW008 BKN015 07/05 Q0996

METARs EXPIRÉS :
  • 141250Z 01028G39KT 9999 SHRA FEW008 BKN015 07/05 Q0996
  • 141220Z 02028G38KT 9999 SHRA FEW003 BKN012 07/05 Q0996
  • 141150Z 01028G40KT 9999 SHRA FEW003 BKN012 07/05 Q0996
  • 141120Z 02026KT 7000 VCSH FEW005 BKN015 07/05 Q0996 RESHRA
  • 141050Z 03022G33KT 5000 SHRA SCT003 BKN012 06/05 Q0996

TAF TAF EGHC
Valide du 14 à 12h jusqu'au 14 à 18h UTC


141107Z 1412/1418 01020G33KT 9999 SCT020
BECMG 1412/1415 02025G43KT
TEMPO 1412/1418 6000 SHRA RA BKN012
PROB30
TEMPO 1412/1416 4000 +RA BKN009 BKN014CB
PROB30
TEMPO 1412/1418 02035G53KT



MET'MAP, la Météo Aéronautique d'un coup d'oeil ! - Copyright ORBIFLY Décembre 2007 - Disclaimer

ORBIFLY MET'MAP TEAM :

Programmation & Développement : Alexandra Zaïnal
Conception & Développement : Baudouin d'Aumeries
Co-Programmation & Développement : Marc-Olivier Méhu
Soutien technique & logistique : Manuel Goepfert

Contact : metmap@orbifly.com




SOURCES & CREDITS :

   NOAA